Meteo

Meteo


Dettagli e Storico

Webcam

Webcam in aeroporto – Aggiornata ogni minuto

Osservatorio Meteorologico Cocomaro di Cona – Ferrara

NOAA IMAGE

NOAA

Powerd by MEEO S.r.l.

METAR

Aviation Digital Data Service (ADDS)

Output produced by METARs form (0711 UTC 26 April 2018)
found at http://aviationweather.gov/adds/metars/
 

METAR text: LIPF 260655Z 00000KT CAVOK 16/14 Q1012 RMK SKC VIS MIN
9999
Conditions at: LIPF
(FERRARA (AUT) , IT) observed 0655 UTC 26 April 2018
Temperature: 16.0°C (61°F)
Dewpoint: 14.0°C (57°F) [RH = 88%]
Pressure (altimeter): 29.88 inches Hg (1012.0 mb)
Winds: calm
Visibility: 6 or more miles (10+ km)
Ceiling: ceiling and visibility are OK
Clouds: unknown
Weather: no significant weather observed at this time

METAR text: LIPE 260650Z 23005KT 200V280 CAVOK 20/11 Q1013
Conditions at: LIPE
(BOLOGNA/BORGO (A, IT) observed 0650 UTC 26 April 2018
Temperature: 20.0°C (68°F)
Dewpoint: 11.0°C (52°F) [RH = 56%]
Pressure (altimeter): 29.91 inches Hg (1013.0 mb)
Winds: from the SW (230 degrees) at 6 MPH (5 knots; 2.6 m/s)
Visibility: 6 or more miles (10+ km)
Ceiling: ceiling and visibility are OK
Clouds: unknown
Weather: no significant weather observed at this time

Forecast for: LIPE (BOLOGNA/BORGO (A, IT)
Text: TAF LIPE 260500Z 2606/2706 VRB06KT CAVOK
Forecast period: 0600 UTC 26 April 2018 to 0600 UTC 27 April 2018
Forecast type: FROM: standard forecast or significant change
Winds: variable direction winds at 7 MPH (6 knots; 3.1 m/s)
Visibility: 6 or more miles (10+ km)
Clouds: not forecast
Weather: NSW  (no significant weather)

METAR text: LIPX 260650Z VRB02KT 8000 NSC 18/14 Q1013
Conditions at: LIPX
(VILLAFRANCA(CV/M, IT) observed 0650 UTC 26 April 2018
Temperature: 18.0°C (64°F)
Dewpoint: 14.0°C (57°F) [RH = 77%]
Pressure (altimeter): 29.91 inches Hg (1013.0 mb)
Winds: variable direction winds at 2 MPH (2 knots; 1.0 m/s)
Visibility: 5 miles (8 km)
Ceiling: at least 12,000 feet AGL
Clouds: sky clear below 12,000 feet AGL
Weather: no significant weather observed at this time

Forecast for: LIPX (VILLAFRANCA(CV/M, IT)
Text: TAF LIPX 260500Z 2606/2615 VRB05KT CAVOK
Forecast period: 0600 to 1500 UTC 26 April 2018
Forecast type: FROM: standard forecast or significant change
Winds: variable direction winds at 6 MPH (5 knots; 2.6 m/s)
Visibility: 6 or more miles (10+ km)
Clouds: not forecast
Weather: NSW  (no significant weather)

METAR text: LIPZ 260650Z 03008KT CAVOK 18/14 Q1012 NOSIG
Conditions at: LIPZ
(VENEZIA/TESSERA , IT) observed 0650 UTC 26 April 2018
Temperature: 18.0°C (64°F)
Dewpoint: 14.0°C (57°F) [RH = 77%]
Pressure (altimeter): 29.88 inches Hg (1012.0 mb)
Winds: from the NNE (30 degrees) at 9 MPH (8 knots; 4.2 m/s)
Visibility: 6 or more miles (10+ km)
Ceiling: ceiling and visibility are OK
Clouds: unknown
Weather: no significant weather observed at this time

Forecast for: LIPZ (VENEZIA/TESSERA , IT)
Text: TAF LIPZ 260500Z 2606/2712 VRB06KT CAVOK
Forecast period: 0600 UTC 26 April 2018 to 1200 UTC 27 April 2018
Forecast type: FROM: standard forecast or significant change
Winds: variable direction winds at 7 MPH (6 knots; 3.1 m/s)
Visibility: 6 or more miles (10+ km)
Clouds: not forecast
Weather: NSW  (no significant weather)
Forecast for: LIPZ (VENEZIA/TESSERA , IT)
Text: TAF LIPZ 260500Z 2606/2712 VRB06KT CAVOK
Forecast period: 0600 UTC 26 April 2018 to 1200 UTC 27 April 2018
Forecast type: FROM: standard forecast or significant change
Winds: variable direction winds at 7 MPH (6 knots; 3.1 m/s)
Visibility: 6 or more miles (10+ km)
Clouds: not forecast
Weather: NSW  (no significant weather)
Forecast for: LIPZ (VENEZIA/TESSERA , IT)
Text: TAF LIPZ 260500Z 2606/2712 VRB06KT CAVOK
Forecast period: 2000 UTC 26 April 2018 to 0100 UTC 27 April 2018
Forecast type: TEMPORARY: The following changes expected for less than half the time period
Weather: RA  (rain)
Forecast for: LIPZ (VENEZIA/TESSERA , IT)
Text: TAF LIPZ 260500Z 2606/2712 VRB06KT CAVOK
Forecast period: 2000 UTC 26 April 2018 to 0100 UTC 27 April 2018
Forecast type: TEMPORARY: The following changes expected for less than half the time period
Weather: RA  (rain)